Time;durP1;ratioP1;P1;durP2;ratioP2;P2;SDS_P1;SDS_P2;PMS_P1;PMS_P2;Temp;Humidity;BMP_temperature;BMP_pressure;BME280_temperature;BME280_humidity;BME280_pressure;Samples;Min_cycle;Max_cycle;Signal;HPM_P1;HPM_P2
2022/01/10 00:00:31;;;;;;;22.03;5.37;;;2.70;99.90;;;;;;5045130;28;20039;-79
2022/01/10 00:02:59;;;;;;;31.90;6.80;;;2.70;99.90;;;;;;5027150;28;20131;-79
2022/01/10 00:05:25;;;;;;;32.73;6.20;;;2.70;99.90;;;;;;5049979;28;20508;-79
2022/01/10 00:07:51;;;;;;;30.07;7.03;;;2.70;99.90;;;;;;5059088;28;20071;-79
2022/01/10 00:10:18;;;;;;;39.63;7.27;;;2.70;99.90;;;;;;5028575;28;20521;-78
2022/01/10 00:12:44;;;;;;;29.63;6.10;;;2.70;99.90;;;;;;5053752;28;20044;-79
2022/01/10 00:15:11;;;;;;;22.33;5.43;;;2.70;99.90;;;;;;5043666;28;20036;-79
2022/01/10 00:17:38;;;;;;;19.63;5.17;;;2.60;99.90;;;;;;5048831;28;20048;-79
2022/01/10 00:20:08;;;;;;;17.70;4.87;;;2.60;99.90;;;;;;5026471;28;20047;-79
2022/01/10 00:22:35;;;;;;;23.27;4.77;;;2.50;99.90;;;;;;5049628;28;20127;-79
2022/01/10 00:25:03;;;;;;;21.83;4.60;;;2.50;99.90;;;;;;5044298;28;20501;-79
2022/01/10 00:27:29;;;;;;;27.90;5.50;;;2.50;99.90;;;;;;5053047;28;20037;-79
2022/01/10 00:29:54;;;;;;;23.83;5.33;;;2.40;99.90;;;;;;5065028;28;20517;-79
2022/01/10 00:32:22;;;;;;;26.40;7.00;;;2.40;99.90;;;;;;5051971;28;20040;-79
2022/01/10 00:34:48;;;;;;;31.50;7.17;;;2.40;99.90;;;;;;5029227;28;20041;-80
2022/01/10 00:37:15;;;;;;;28.50;6.77;;;2.40;99.90;;;;;;5069159;28;20045;-78
2022/01/10 00:39:41;;;;;;;27.20;6.83;;;2.40;99.90;;;;;;5038579;28;20047;-80
2022/01/10 00:42:07;;;;;;;32.00;7.33;;;2.40;99.90;;;;;;5043099;28;20044;-79
2022/01/10 00:44:38;;;;;;;33.83;7.83;;;2.40;99.90;;;;;;5069769;28;20078;-79
2022/01/10 00:47:04;;;;;;;30.90;6.70;;;2.40;99.90;;;;;;5049637;28;20067;-80
2022/01/10 00:49:30;;;;;;;22.23;5.53;;;2.40;99.90;;;;;;5036204;28;20652;-79
2022/01/10 00:51:55;;;;;;;24.47;6.50;;;2.40;99.90;;;;;;5035122;28;20056;-80
2022/01/10 00:54:22;;;;;;;21.93;6.03;;;2.30;99.90;;;;;;5037400;28;20044;-78
2022/01/10 00:56:48;;;;;;;21.30;5.83;;;2.30;99.90;;;;;;5054622;28;20056;-79
2022/01/10 00:59:14;;;;;;;27.73;7.00;;;2.20;99.90;;;;;;5026895;28;20040;-79
2022/01/10 01:01:40;;;;;;;18.33;5.50;;;2.20;99.90;;;;;;5035655;28;20108;-80
2022/01/10 01:04:06;;;;;;;19.63;6.20;;;2.10;99.90;;;;;;5050819;28;20555;-79
2022/01/10 01:06:32;;;;;;;35.33;7.70;;;2.10;99.90;;;;;;5049391;28;20039;-79
2022/01/10 01:09:02;;;;;;;27.87;7.60;;;2.10;99.90;;;;;;5026375;28;20037;-80
2022/01/10 01:14:24;;;;;;;29.57;7.80;;;2.10;99.90;;;;;;5034695;28;20056;-80
2022/01/10 01:17:10;;;;;;;27.30;7.60;;;2.00;99.90;;;;;;5051254;28;20048;-79
2022/01/10 01:25:04;;;;;;;36.45;9.35;;;2.00;99.90;;;;;;5040405;28;20037;-79
2022/01/10 01:27:32;;;;;;;24.67;8.03;;;1.90;99.90;;;;;;5030614;28;20051;-79
2022/01/10 01:29:57;;;;;;;31.27;8.50;;;1.90;99.90;;;;;;5046431;28;20506;-79
2022/01/10 01:32:23;;;;;;;43.20;9.87;;;1.90;99.90;;;;;;5049282;28;20048;-79
2022/01/10 01:34:50;;;;;;;33.70;8.20;;;1.90;99.90;;;;;;5027305;28;20045;-79
2022/01/10 01:37:16;;;;;;;25.70;8.40;;;1.90;99.90;;;;;;5060188;28;20131;-79
2022/01/10 01:39:41;;;;;;;23.10;7.00;;;1.80;99.90;;;;;;5050430;28;20466;-79
2022/01/10 01:42:32;;;;;;;22.47;7.37;;;1.80;99.90;;;;;;5026864;28;20093;-79
2022/01/10 01:44:59;;;;;;;22.87;7.57;;;1.70;99.90;;;;;;5028637;28;20469;-79
2022/01/10 01:47:25;;;;;;;26.47;7.83;;;1.70;99.90;;;;;;5029595;28;20076;-79
2022/01/10 01:49:52;;;;;;;21.40;7.33;;;1.70;99.90;;;;;;5047838;28;20041;-79
2022/01/10 01:52:18;;;;;;;23.90;7.40;;;1.60;99.90;;;;;;5061301;28;20055;-79
2022/01/10 01:54:44;;;;;;;29.23;9.10;;;1.60;99.90;;;;;;5031114;28;20035;-79
2022/01/10 01:57:10;;;;;;;25.27;7.67;;;1.60;99.90;;;;;;5042067;28;20128;-79
2022/01/10 01:59:37;;;;;;;16.87;6.23;;;1.50;99.90;;;;;;5032432;28;20094;-79
2022/01/10 02:02:05;;;;;;;27.43;9.40;;;1.50;99.90;;;;;;5037448;28;20055;-79
2022/01/10 02:04:31;;;;;;;25.30;9.20;;;1.50;99.90;;;;;;5045418;28;20119;-79
2022/01/10 02:06:58;;;;;;;30.43;10.53;;;1.50;99.90;;;;;;5050898;28;20066;-79
2022/01/10 02:09:24;;;;;;;39.93;10.47;;;1.50;99.90;;;;;;5025643;28;20413;-78
2022/01/10 02:11:53;;;;;;;32.57;10.90;;;1.50;99.90;;;;;;5028796;28;20045;-79
2022/01/10 02:14:20;;;;;;;26.60;8.90;;;1.50;99.90;;;;;;5028233;28;20063;-79
2022/01/10 02:16:53;;;;;;;36.40;11.20;;;1.50;99.90;;;;;;5033232;28;20134;-79
2022/01/10 02:19:56;;;;;;;30.07;9.80;;;1.50;99.90;;;;;;5023839;28;20529;-79
2022/01/10 02:22:23;;;;;;;36.10;11.77;;;1.50;99.90;;;;;;5044480;28;20072;-79
2022/01/10 02:25:05;;;;;;;23.67;10.07;;;1.40;99.90;;;;;;5025198;28;20046;-79
2022/01/10 02:27:31;;;;;;;36.57;10.73;;;1.40;99.90;;;;;;5045938;28;20040;-79
2022/01/10 02:30:00;;;;;;;32.70;10.57;;;1.40;99.90;;;;;;5084205;28;20303;-79
2022/01/10 02:32:25;;;;;;;29.20;10.27;;;1.40;99.90;;;;;;5051892;28;20059;-79
2022/01/10 02:34:51;;;;;;;37.23;9.17;;;1.40;99.90;;;;;;5028238;28;20044;-79
2022/01/10 02:37:33;;;;;;;27.97;8.57;;;1.30;99.90;;;;;;5042888;28;20119;-79
2022/01/10 02:40:02;;;;;;;27.90;9.43;;;1.30;99.90;;;;;;5025074;28;20104;-79
2022/01/10 02:42:28;;;;;;;25.63;9.43;;;1.20;99.90;;;;;;5066356;28;20037;-79
2022/01/10 02:44:54;;;;;;;27.13;9.63;;;1.30;99.90;;;;;;5050185;28;20468;-79
2022/01/10 02:47:20;;;;;;;21.47;8.87;;;1.20;99.90;;;;;;5055854;28;20143;-79
2022/01/10 02:49:45;;;;;;;36.27;11.57;;;1.20;99.90;;;;;;5039872;28;20087;-79
2022/01/10 02:52:11;;;;;;;30.40;10.47;;;1.10;99.90;;;;;;5030608;28;20040;-79
2022/01/10 02:54:38;;;;;;;26.43;8.77;;;1.20;99.90;;;;;;5040727;28;21022;-79
2022/01/10 02:57:12;;;;;;;33.70;8.33;;;1.10;99.90;;;;;;5031163;28;20044;-79
2022/01/10 02:59:39;;;;;;;24.80;8.67;;;1.10;99.90;;;;;;5053404;28;20664;-80
2022/01/10 03:02:07;;;;;;;24.33;8.87;;;1.10;99.90;;;;;;5048142;28;20079;-79
2022/01/10 03:04:33;;;;;;;20.57;7.60;;;1.00;99.90;;;;;;5046654;28;20041;-79
2022/01/10 03:06:58;;;;;;;21.90;9.07;;;1.00;99.90;;;;;;5050958;28;20302;-79
2022/01/10 03:09:24;;;;;;;41.73;10.57;;;0.90;99.90;;;;;;5025416;28;20036;-80
2022/01/10 03:11:52;;;;;;;25.07;10.80;;;0.90;99.90;;;;;;5026909;28;20067;-79
2022/01/10 03:14:18;;;;;;;30.80;12.23;;;0.90;99.90;;;;;;5030818;28;20074;-80
2022/01/10 03:16:44;;;;;;;31.23;11.27;;;0.90;99.90;;;;;;5030000;28;20040;-80
2022/01/10 03:19:10;;;;;;;23.33;8.73;;;0.90;99.90;;;;;;5048979;28;20298;-79
2022/01/10 03:21:36;;;;;;;17.87;8.33;;;0.90;99.90;;;;;;5046590;28;20506;-80
2022/01/10 03:24:02;;;;;;;17.13;7.80;;;0.90;99.90;;;;;;5048984;28;20040;-80
2022/01/10 03:26:28;;;;;;;24.53;8.53;;;0.90;99.90;;;;;;5040254;28;20041;-79
2022/01/10 03:28:55;;;;;;;27.40;9.70;;;0.90;99.90;;;;;;5038796;28;20299;-80
2022/01/10 03:31:21;;;;;;;44.87;10.23;;;0.90;99.90;;;;;;5038976;28;20298;-80
2022/01/10 03:33:47;;;;;;;89.97;10.27;;;0.80;99.90;;;;;;5049970;28;20049;-79
2022/01/10 03:36:13;;;;;;;29.97;10.10;;;0.80;99.90;;;;;;5043845;28;20097;-80
2022/01/10 03:38:39;;;;;;;21.03;9.30;;;0.80;99.90;;;;;;5049360;28;20498;-80
2022/01/10 03:41:05;;;;;;;18.23;8.13;;;0.80;99.90;;;;;;5034112;28;20317;-79
2022/01/10 03:43:31;;;;;;;25.27;8.97;;;0.80;99.90;;;;;;5045922;28;20037;-79
2022/01/10 03:45:58;;;;;;;22.43;9.37;;;0.80;99.90;;;;;;5036492;28;20064;-80
2022/01/10 03:48:24;;;;;;;21.87;9.73;;;0.70;99.90;;;;;;5027970;28;20412;-79
2022/01/10 03:50:50;;;;;;;25.37;10.87;;;0.70;99.90;;;;;;5064187;28;20304;-80
2022/01/10 03:53:17;;;;;;;30.60;10.37;;;0.70;99.90;;;;;;5049465;28;20116;-79
2022/01/10 03:55:43;;;;;;;28.07;10.97;;;0.70;99.90;;;;;;5030580;28;20048;-80
2022/01/10 03:58:10;;;;;;;33.10;12.67;;;0.70;99.90;;;;;;5014221;28;20417;-79
2022/01/10 04:00:35;;;;;;;25.20;11.33;;;0.60;99.90;;;;;;5043050;28;20299;-79
2022/01/10 04:03:06;;;;;;;29.33;12.47;;;0.70;99.90;;;;;;5068511;28;20598;-79
2022/01/10 04:05:37;;;;;;;35.83;14.23;;;0.60;99.90;;;;;;5055346;28;20040;-79
2022/01/10 04:08:04;;;;;;;38.37;13.23;;;0.70;99.90;;;;;;5041580;28;20884;-80
2022/01/10 04:10:30;;;;;;;46.17;14.33;;;0.70;99.90;;;;;;5037789;28;20037;-79
2022/01/10 04:12:55;;;;;;;40.10;11.73;;;0.70;99.90;;;;;;5076240;28;20301;-79
2022/01/10 04:15:21;;;;;;;26.23;10.47;;;0.70;99.90;;;;;;5039133;28;20050;-80
2022/01/10 04:17:54;;;;;;;31.93;11.23;;;0.60;99.90;;;;;;5037469;28;20048;-79
2022/01/10 04:20:22;;;;;;;19.03;9.37;;;0.60;99.90;;;;;;5062070;28;20032;-79
2022/01/10 04:22:47;;;;;;;25.40;11.07;;;0.60;99.90;;;;;;5061614;28;20364;-79
2022/01/10 04:25:13;;;;;;;24.77;11.23;;;0.50;99.90;;;;;;5054930;28;20799;-79
2022/01/10 04:27:39;;;;;;;30.00;11.60;;;0.50;99.90;;;;;;5040590;28;20508;-79
2022/01/10 04:30:05;;;;;;;31.93;12.40;;;0.50;99.90;;;;;;5054860;28;20086;-80
2022/01/10 04:32:33;;;;;;;26.10;12.77;;;0.60;99.90;;;;;;5062699;28;20087;-79
2022/01/10 04:34:59;;;;;;;27.57;12.37;;;0.60;99.90;;;;;;5035058;28;20301;-79
2022/01/10 04:37:26;;;;;;;24.43;11.73;;;0.50;99.90;;;;;;5038088;28;20294;-80
2022/01/10 04:39:52;;;;;;;29.10;12.47;;;0.50;99.90;;;;;;5051762;28;20311;-79
2022/01/10 04:42:18;;;;;;;27.40;12.80;;;0.50;99.90;;;;;;5028192;28;20410;-80
2022/01/10 04:44:44;;;;;;;35.10;15.07;;;0.60;99.90;;;;;;5048685;28;20048;-79
2022/01/10 04:47:10;;;;;;;32.87;14.00;;;0.50;99.90;;;;;;5027578;28;20040;-79
2022/01/10 04:52:22;;;;;;;33.17;12.80;;;0.60;99.90;;;;;;5017137;28;20338;-79
2022/01/10 04:54:49;;;;;;;42.63;15.13;;;0.60;99.90;;;;;;5041660;28;20314;-80
2022/01/10 04:57:15;;;;;;;31.73;14.83;;;0.70;99.90;;;;;;5028608;28;20083;-79
2022/01/10 04:59:41;;;;;;;33.43;14.63;;;0.60;99.90;;;;;;5025507;28;20303;-79
2022/01/10 05:02:07;;;;;;;32.73;14.20;;;0.60;99.90;;;;;;5032869;28;20306;-79
2022/01/10 05:04:34;;;;;;;32.97;14.30;;;0.50;99.90;;;;;;5042375;28;20374;-79
2022/01/10 05:07:00;;;;;;;32.87;12.17;;;0.50;99.90;;;;;;5032635;28;20299;-79
2022/01/10 05:09:26;;;;;;;24.83;11.73;;;0.50;99.90;;;;;;5031698;28;20329;-79
2022/01/10 05:12:03;;;;;;;30.37;12.83;;;0.50;99.90;;;;;;5026563;28;20553;-80
2022/01/10 05:14:29;;;;;;;30.37;11.70;;;0.50;99.90;;;;;;5041609;28;20361;-79
2022/01/10 05:16:55;;;;;;;28.90;12.83;;;0.50;99.90;;;;;;5040221;28;20866;-79
2022/01/10 05:19:20;;;;;;;35.07;11.77;;;0.40;99.90;;;;;;5021739;28;20296;-81
2022/01/10 05:21:46;;;;;;;31.70;13.23;;;0.40;99.90;;;;;;5037330;28;20582;-79
2022/01/10 05:24:12;;;;;;;28.87;10.40;;;0.40;99.90;;;;;;5036312;28;20044;-79
2022/01/10 05:26:38;;;;;;;22.73;9.90;;;0.50;99.90;;;;;;5038355;28;20131;-79
2022/01/10 05:29:06;;;;;;;27.70;10.23;;;0.40;99.90;;;;;;5039710;28;20041;-80
2022/01/10 05:31:35;;;;;;;22.33;9.87;;;0.30;99.90;;;;;;5022493;28;20864;-79
2022/01/10 05:34:11;;;;;;;28.93;12.07;;;0.30;99.90;;;;;;5032769;28;20295;-79
2022/01/10 05:36:37;;;;;;;31.40;13.80;;;0.30;99.90;;;;;;5034399;28;20344;-79
2022/01/10 05:39:02;;;;;;;34.53;14.27;;;0.20;99.90;;;;;;5039303;28;20522;-79
2022/01/10 05:41:28;;;;;;;44.57;16.77;;;0.20;99.90;;;;;;5055975;28;20045;-79
2022/01/10 05:43:55;;;;;;;49.77;19.53;;;0.20;99.90;;;;;;5042643;28;20071;-78
2022/01/10 05:46:23;;;;;;;38.60;15.70;;;0.30;99.90;;;;;;5060606;28;20388;-79
2022/01/10 05:48:53;;;;;;;35.20;14.17;;;0.30;99.90;;;;;;5041595;28;20299;-79
2022/01/10 05:51:20;;;;;;;37.07;17.27;;;0.20;99.90;;;;;;5033126;28;20331;-79
2022/01/10 05:53:50;;;;;;;38.37;16.90;;;0.20;99.90;;;;;;5022521;28;20314;-79
2022/01/10 05:56:17;;;;;;;37.13;15.40;;;0.20;99.90;;;;;;5031532;28;20803;-79
2022/01/10 05:58:54;;;;;;;32.37;14.43;;;0.20;99.90;;;;;;5046953;28;20295;-79
2022/01/10 06:01:20;;;;;;;37.20;16.00;;;0.20;99.90;;;;;;5025438;28;20386;-79
2022/01/10 06:03:53;;;;;;;28.93;14.33;;;0.20;99.90;;;;;;5033137;28;20381;-79
2022/01/10 06:06:25;;;;;;;31.83;16.63;;;0.10;99.90;;;;;;5021919;28;20314;-79
2022/01/10 06:08:51;;;;;;;25.97;14.90;;;0.10;99.90;;;;;;5037041;28;20037;-79
2022/01/10 06:11:17;;;;;;;27.60;14.10;;;0.10;99.90;;;;;;5020066;28;20077;-79
2022/01/10 06:13:46;;;;;;;29.33;14.40;;;0.10;99.90;;;;;;5045716;28;20299;-79
2022/01/10 06:16:13;;;;;;;24.27;14.20;;;0.10;99.90;;;;;;5037410;28;20390;-79
2022/01/10 06:18:42;;;;;;;25.13;13.40;;;0.10;99.90;;;;;;5037019;28;20491;-79
2022/01/10 06:21:09;;;;;;;32.50;14.10;;;0.10;99.90;;;;;;5036637;28;20325;-80
2022/01/10 06:23:35;;;;;;;27.50;14.23;;;0.10;99.90;;;;;;5020866;28;20529;-79
2022/01/10 06:26:01;;;;;;;29.50;14.27;;;0.10;99.90;;;;;;5037530;28;20295;-79
2022/01/10 06:28:28;;;;;;;22.73;11.97;;;0.10;99.90;;;;;;5024193;28;20037;-79
2022/01/10 06:30:56;;;;;;;40.73;14.87;;;0.10;99.90;;;;;;5020357;28;20327;-78
2022/01/10 06:33:24;;;;;;;41.87;15.17;;;0.10;99.90;;;;;;5049962;28;20303;-79
2022/01/10 06:35:51;;;;;;;28.00;14.50;;;0.10;99.90;;;;;;5036876;28;20305;-79
2022/01/10 06:38:18;;;;;;;31.47;15.03;;;0.10;99.90;;;;;;5018481;28;20387;-79
2022/01/10 06:40:44;;;;;;;34.00;17.27;;;0.10;99.90;;;;;;5032268;28;20051;-79
2022/01/10 06:43:10;;;;;;;30.30;13.60;;;0.00;99.90;;;;;;5016428;28;20393;-79
2022/01/10 06:45:37;;;;;;;29.50;14.23;;;0.10;99.90;;;;;;5038151;28;20033;-79
2022/01/10 06:48:04;;;;;;;39.37;15.93;;;0.10;99.90;;;;;;5031616;28;20644;-79
2022/01/10 06:50:33;;;;;;;24.63;13.00;;;0.00;99.90;;;;;;5034647;28;20291;-80
2022/01/10 06:53:00;;;;;;;25.90;12.93;;;0.00;99.90;;;;;;5032199;28;20310;-79
2022/01/10 06:55:29;;;;;;;30.50;14.17;;;0.10;99.90;;;;;;5033994;28;20545;-79
2022/01/10 06:57:58;;;;;;;27.63;13.50;;;0.00;99.90;;;;;;5032342;28;20721;-79
2022/01/10 07:00:26;;;;;;;41.87;16.47;;;0.00;99.90;;;;;;5017995;28;20371;-79
2022/01/10 07:02:55;;;;;;;41.63;15.93;;;0.00;99.90;;;;;;5032403;28;20349;-80
2022/01/10 07:05:21;;;;;;;34.23;16.17;;;0.00;99.90;;;;;;5005270;28;20304;-79
2022/01/10 07:07:51;;;;;;;40.90;18.90;;;0.00;99.90;;;;;;5034969;28;20796;-79
2022/01/10 07:10:30;;;;;;;40.63;16.13;;;-0.10;99.90;;;;;;5012593;28;20307;-80
2022/01/10 07:12:56;;;;;;;37.40;16.13;;;-0.10;99.90;;;;;;5012351;28;20978;-79
2022/01/10 07:15:25;;;;;;;33.37;16.93;;;0.00;99.90;;;;;;5011581;28;20310;-79
2022/01/10 07:17:53;;;;;;;33.97;15.53;;;0.00;99.90;;;;;;5025733;28;20041;-79
2022/01/10 07:20:20;;;;;;;33.80;15.23;;;-0.10;99.90;;;;;;5012433;28;20310;-79
2022/01/10 07:22:47;;;;;;;31.43;14.80;;;-0.10;99.90;;;;;;5031195;28;20365;-79
2022/01/10 07:25:13;;;;;;;31.97;15.87;;;-0.10;99.90;;;;;;5029539;28;20384;-79
2022/01/10 07:27:40;;;;;;;35.43;16.07;;;-0.10;99.90;;;;;;5046508;28;20763;-79
2022/01/10 07:30:07;;;;;;;36.77;16.37;;;-0.10;99.90;;;;;;5048181;28;20119;-78
2022/01/10 07:32:33;;;;;;;46.87;19.00;;;-0.10;99.90;;;;;;5030263;28;20307;-78
2022/01/10 07:34:59;;;;;;;34.73;16.87;;;-0.10;99.90;;;;;;5006513;28;20313;-78
2022/01/10 07:37:25;;;;;;;44.43;18.37;;;-0.10;99.90;;;;;;5026429;28;20053;-78
2022/01/10 07:39:51;;;;;;;48.57;19.90;;;-0.10;99.90;;;;;;5029428;28;20364;-79
2022/01/10 07:42:17;;;;;;;33.20;16.83;;;-0.10;99.90;;;;;;5030815;28;20490;-81
2022/01/10 07:44:50;;;;;;;40.77;17.63;;;-0.10;99.90;;;;;;5016949;28;20049;-79
2022/01/10 07:47:16;;;;;;;42.23;17.80;;;0.00;99.90;;;;;;5036028;28;20330;-79
2022/01/10 07:49:41;;;;;;;46.60;17.23;;;0.00;99.90;;;;;;5021633;28;20350;-79
2022/01/10 07:52:07;;;;;;;37.20;15.63;;;0.00;99.90;;;;;;5019870;28;20040;-80
2022/01/10 07:54:33;;;;;;;36.70;16.03;;;0.00;99.90;;;;;;5033340;28;20048;-79
2022/01/10 07:56:59;;;;;;;40.87;18.20;;;0.00;99.90;;;;;;5022686;28;20494;-81
2022/01/10 07:59:25;;;;;;;38.10;18.17;;;-0.10;99.90;;;;;;5017026;28;20304;-79
2022/01/10 08:01:52;;;;;;;38.00;18.00;;;-0.10;99.90;;;;;;5028103;28;20043;-79
2022/01/10 08:04:18;;;;;;;36.33;17.13;;;0.00;99.90;;;;;;5030733;28;20064;-80
2022/01/10 08:06:44;;;;;;;36.37;17.83;;;0.00;99.90;;;;;;5032799;28;20299;-79
2022/01/10 08:09:09;;;;;;;34.97;17.03;;;0.00;99.90;;;;;;5033024;28;20148;-80
2022/01/10 08:11:35;;;;;;;40.67;16.90;;;0.00;99.90;;;;;;5040144;28;20120;-80
2022/01/10 08:14:02;;;;;;;45.20;18.93;;;0.00;99.90;;;;;;5019519;28;20528;-79
2022/01/10 08:16:28;;;;;;;41.80;18.37;;;0.00;99.90;;;;;;5033587;28;20411;-80
2022/01/10 08:18:55;;;;;;;42.47;18.13;;;0.00;99.90;;;;;;5022313;28;20311;-80
2022/01/10 08:21:20;;;;;;;35.57;19.13;;;0.00;99.90;;;;;;5019027;28;20132;-80
2022/01/10 08:23:46;;;;;;;34.83;16.17;;;0.10;99.90;;;;;;5034182;28;20395;-79
2022/01/10 08:26:12;;;;;;;32.73;17.03;;;0.10;99.90;;;;;;5029763;28;20502;-79
2022/01/10 08:28:38;;;;;;;35.23;17.43;;;0.10;99.90;;;;;;5019800;28;20055;-80
2022/01/10 08:31:05;;;;;;;45.90;19.03;;;0.10;99.90;;;;;;5028927;28;20044;-80
2022/01/10 08:33:31;;;;;;;36.83;16.93;;;0.10;99.90;;;;;;5029841;28;20312;-79
2022/01/10 08:35:58;;;;;;;34.33;16.73;;;0.10;99.90;;;;;;5041985;28;20044;-79
2022/01/10 08:38:24;;;;;;;37.10;17.97;;;0.10;99.90;;;;;;5048793;28;20295;-79
2022/01/10 08:40:50;;;;;;;45.37;18.07;;;0.10;99.90;;;;;;5019685;28;20309;-79
2022/01/10 08:43:16;;;;;;;40.07;18.70;;;0.20;99.90;;;;;;5032004;28;20049;-79
2022/01/10 08:45:43;;;;;;;43.63;19.53;;;0.20;99.90;;;;;;5037123;28;20050;-79
2022/01/10 08:48:09;;;;;;;46.17;19.70;;;0.40;99.90;;;;;;5035093;28;20337;-79
2022/01/10 08:50:36;;;;;;;41.40;19.50;;;0.40;99.90;;;;;;5033617;28;20347;-80
2022/01/10 08:53:05;;;;;;;37.53;20.97;;;0.40;99.90;;;;;;5054480;28;20053;-80
2022/01/10 08:55:31;;;;;;;39.40;20.60;;;0.40;99.90;;;;;;5035565;28;20307;-80
2022/01/10 08:57:56;;;;;;;46.63;23.33;;;0.50;99.90;;;;;;5036683;28;21236;-80
2022/01/10 09:00:22;;;;;;;57.67;26.37;;;0.60;99.90;;;;;;5055030;28;20071;-79
2022/01/10 09:02:48;;;;;;;56.07;26.57;;;0.70;99.90;;;;;;5035297;28;20522;-80
2022/01/10 09:05:14;;;;;;;52.93;25.30;;;0.80;99.90;;;;;;5018374;28;20047;-79
2022/01/10 09:07:40;;;;;;;46.93;24.17;;;0.90;99.90;;;;;;5020726;28;20041;-80
2022/01/10 09:10:07;;;;;;;40.00;21.30;;;1.10;99.90;;;;;;5039158;28;20040;-80
2022/01/10 09:12:33;;;;;;;43.10;20.80;;;1.10;99.90;;;;;;5020887;28;20052;-80
2022/01/10 09:14:59;;;;;;;45.30;20.33;;;1.20;99.90;;;;;;5021254;28;20823;-78
2022/01/10 09:17:24;;;;;;;52.33;26.37;;;1.30;99.90;;;;;;5017423;28;20477;-79
2022/01/10 09:19:50;;;;;;;52.87;26.57;;;1.40;99.90;;;;;;5033171;28;20041;-80
2022/01/10 09:22:16;;;;;;;51.00;28.80;;;1.50;99.90;;;;;;5014992;28;20045;-80
2022/01/10 09:24:46;;;;;;;60.90;27.43;;;1.50;99.90;;;;;;5038799;28;20049;-80
2022/01/10 09:27:14;;;;;;;52.47;25.40;;;1.60;99.90;;;;;;5038881;28;20052;-80
2022/01/10 09:29:40;;;;;;;57.70;27.57;;;1.70;99.90;;;;;;5022767;28;20299;-80
2022/01/10 09:32:06;;;;;;;55.77;27.37;;;1.80;99.90;;;;;;5013481;28;20399;-80
2022/01/10 09:34:32;;;;;;;56.83;27.43;;;1.90;99.90;;;;;;5046189;28;20052;-79
2022/01/10 09:36:57;;;;;;;52.60;26.37;;;2.00;99.90;;;;;;5046848;28;20322;-79
2022/01/10 09:39:23;;;;;;;47.23;27.20;;;2.10;99.90;;;;;;5046730;28;20072;-80
2022/01/10 09:41:51;;;;;;;57.37;27.53;;;2.30;99.90;;;;;;5032070;28;20049;-80
2022/01/10 09:44:18;;;;;;;73.27;28.83;;;2.40;99.90;;;;;;5031259;28;20044;-80
2022/01/10 09:46:47;;;;;;;127.83;30.63;;;2.50;99.90;;;;;;5035209;28;20307;-80
2022/01/10 09:49:13;;;;;;;61.07;28.43;;;2.60;99.90;;;;;;5036761;28;20452;-79
2022/01/10 09:51:39;;;;;;;63.73;28.93;;;2.90;99.90;;;;;;5050834;28;20043;-79
2022/01/10 09:54:05;;;;;;;216.63;34.77;;;3.70;99.90;;;;;;5036924;28;20188;-79
2022/01/10 09:56:31;;;;;;;99.43;25.73;;;4.70;99.90;;;;;;5052105;28;20652;-79
2022/01/10 09:58:58;;;;;;;419.43;35.07;;;5.70;99.90;;;;;;5036634;28;20079;-80
2022/01/10 10:01:27;;;;;;;283.63;27.03;;;6.60;99.90;;;;;;5050524;28;20044;-80
2022/01/10 10:03:58;;;;;;;131.97;17.23;;;7.40;99.90;;;;;;5018407;28;20406;-80
2022/01/10 10:06:25;;;;;;;29.30;13.03;;;8.10;99.90;;;;;;5016810;28;20512;-80
2022/01/10 10:08:51;;;;;;;37.20;12.23;;;8.70;99.90;;;;;;5018962;28;20414;-79
2022/01/10 10:11:16;;;;;;;30.00;12.13;;;9.20;99.90;;;;;;5033564;28;20053;-80
2022/01/10 10:13:43;;;;;;;19.93;11.93;;;9.70;99.90;;;;;;5051815;28;20098;-81
2022/01/10 10:16:14;;;;;;;24.17;12.70;;;10.10;99.90;;;;;;5014777;28;20049;-80
2022/01/10 10:18:43;;;;;;;19.90;12.10;;;10.50;99.90;;;;;;5051513;28;20068;-81
2022/01/10 10:21:13;;;;;;;23.00;12.13;;;11.00;99.90;;;;;;5021093;28;20109;-80
2022/01/10 10:23:41;;;;;;;21.47;11.10;;;11.50;99.90;;;;;;5035926;28;20037;-80
2022/01/10 10:26:07;;;;;;;19.00;11.40;;;11.90;99.90;;;;;;5035053;28;20628;-79
2022/01/10 10:28:35;;;;;;;20.33;11.63;;;12.10;99.90;;;;;;5021511;28;20051;-80
2022/01/10 10:31:01;;;;;;;18.67;11.67;;;12.30;99.90;;;;;;5035292;28;20164;-80
2022/01/10 10:33:27;;;;;;;16.90;11.83;;;12.40;99.90;;;;;;5017840;28;20079;-80
2022/01/10 10:35:57;;;;;;;23.40;12.23;;;12.70;99.90;;;;;;5058347;28;20465;-80
2022/01/10 10:38:25;;;;;;;15.83;11.63;;;13.00;99.90;;;;;;5030261;28;20049;-80
2022/01/10 10:40:51;;;;;;;16.37;12.47;;;13.40;99.60;;;;;;5032516;28;20103;-79
2022/01/10 10:43:17;;;;;;;18.50;11.40;;;13.80;99.90;;;;;;5034265;28;20045;-80
2022/01/10 10:45:46;;;;;;;19.77;10.70;;;14.10;98.90;;;;;;5033543;28;20555;-81
2022/01/10 10:48:12;;;;;;;19.53;10.93;;;14.30;97.30;;;;;;5018763;28;20041;-81
2022/01/10 10:50:41;;;;;;;20.10;10.93;;;14.50;96.80;;;;;;5019878;28;20040;-80
2022/01/10 10:53:10;;;;;;;15.63;10.80;;;14.70;96.10;;;;;;5052719;28;20116;-79
2022/01/10 10:55:38;;;;;;;19.57;10.63;;;14.90;96.20;;;;;;5017322;28;20079;-80
2022/01/10 10:58:05;;;;;;;16.70;10.53;;;15.20;95.10;;;;;;5020568;28;20059;-80
2022/01/10 11:00:31;;;;;;;19.80;10.13;;;15.30;94.70;;;;;;5035025;28;20040;-80
2022/01/10 11:02:58;;;;;;;19.43;10.93;;;15.30;93.90;;;;;;5034824;28;20059;-80
2022/01/10 11:05:24;;;;;;;16.97;9.73;;;15.40;93.20;;;;;;5021947;28;20040;-79
2022/01/10 11:07:52;;;;;;;15.60;10.47;;;15.50;93.20;;;;;;5035979;28;20048;-80
2022/01/10 11:10:19;;;;;;;18.20;9.60;;;15.70;93.20;;;;;;5032237;28;20088;-80
2022/01/10 11:12:52;;;;;;;18.93;9.93;;;16.00;92.20;;;;;;5035175;28;20768;-80
2022/01/10 11:15:17;;;;;;;13.23;10.05;;;16.10;92.20;;;;;;5053083;28;20033;-80
2022/01/10 11:17:43;;;;;;;13.73;9.93;;;16.10;91.30;;;;;;5049595;28;20102;-80
2022/01/10 11:20:12;;;;;;;16.60;10.53;;;16.00;90.90;;;;;;5051929;28;20044;-81
2022/01/10 11:22:40;;;;;;;15.37;9.30;;;16.10;90.90;;;;;;5034788;28;20036;-81
2022/01/10 11:25:20;;;;;;;16.07;10.33;;;16.20;90.50;;;;;;5037502;28;20069;-81
2022/01/10 11:27:46;;;;;;;17.53;10.57;;;16.20;91.20;;;;;;5057587;28;20059;-81
2022/01/10 11:30:31;;;;;;;14.07;8.93;;;16.40;90.20;;;;;;5019881;28;20052;-80
2022/01/10 11:33:00;;;;;;;;;;;16.60;90.00;;;;;;5026966;28;20906;-78
2022/01/10 11:35:27;;;;;;;16.87;9.67;;;16.50;90.20;;;;;;5038006;28;19973;-81
2022/01/10 11:37:53;;;;;;;16.10;10.40;;;16.70;90.00;;;;;;5037062;28;20116;-79
2022/01/10 11:40:20;;;;;;;14.67;9.47;;;16.80;89.00;;;;;;5022042;28;20057;-80
2022/01/10 11:42:52;;;;;;;15.97;9.57;;;16.90;89.30;;;;;;5039330;28;20624;-81
2022/01/10 11:45:18;;;;;;;17.87;9.93;;;17.00;88.10;;;;;;5038331;28;20123;-80
2022/01/10 11:48:14;;;;;;;17.00;9.87;;;17.00;87.60;;;;;;5019403;28;20091;-80
2022/01/10 11:50:42;;;;;;;14.80;9.97;;;17.10;89.00;;;;;;4938067;28;20054;-80
2022/01/10 11:53:09;;;;;;;17.33;10.33;;;17.30;88.10;;;;;;5018817;28;20048;-80
2022/01/10 11:55:52;;;;;;;14.67;9.30;;;17.40;86.50;;;;;;5037359;28;20093;-80
2022/01/10 11:58:20;;;;;;;18.00;10.18;;;17.20;84.40;;;;;;5039781;28;20052;-81
2022/01/10 12:00:46;;;;;;;18.67;9.33;;;16.80;85.10;;;;;;5035077;28;20499;-79
2022/01/10 12:03:12;;;;;;;18.10;9.27;;;16.70;85.80;;;;;;5035461;28;20044;-80
2022/01/10 12:05:40;;;;;;;15.97;9.00;;;16.50;85.90;;;;;;5022195;28;20041;-80
2022/01/10 12:08:06;;;;;;;19.00;9.53;;;16.30;85.80;;;;;;5040041;28;20044;-80
2022/01/10 12:10:33;;;;;;;15.23;9.30;;;16.10;87.30;;;;;;5043890;28;20120;-80
2022/01/10 12:13:03;;;;;;;13.13;9.13;;;16.20;87.10;;;;;;5057141;28;20056;-80
2022/01/10 12:15:33;;;;;;;16.07;9.77;;;16.30;88.10;;;;;;5051257;28;20048;-81
2022/01/10 12:18:00;;;;;;;19.77;9.00;;;16.40;88.00;;;;;;5053886;28;20099;-81
2022/01/10 12:20:25;;;;;;;14.93;8.80;;;16.40;86.70;;;;;;5032909;28;20047;-81
2022/01/10 12:22:52;;;;;;;18.40;9.67;;;16.20;86.00;;;;;;5040696;28;20032;-81
2022/01/10 12:25:18;;;;;;;17.30;9.33;;;16.00;86.10;;;;;;5023013;28;20568;-80
2022/01/10 12:27:44;;;;;;;16.13;9.77;;;15.80;86.50;;;;;;5034289;28;20041;-80
2022/01/10 12:30:12;;;;;;;14.43;9.33;;;15.70;87.40;;;;;;5036361;28;20037;-80
2022/01/10 12:32:38;;;;;;;16.23;9.00;;;15.70;88.10;;;;;;5051879;28;20090;-79
2022/01/10 12:35:04;;;;;;;13.03;9.00;;;15.80;88.20;;;;;;5034573;28;20040;-81
2022/01/10 12:37:30;;;;;;;18.53;9.87;;;15.80;87.40;;;;;;5030267;28;20715;-81
2022/01/10 12:39:56;;;;;;;16.40;9.07;;;15.70;88.50;;;;;;5021504;28;20055;-80
2022/01/10 12:42:26;;;;;;;20.70;10.40;;;15.60;89.40;;;;;;5053794;28;20048;-79
2022/01/10 12:44:51;;;;;;;17.80;9.20;;;15.50;87.10;;;;;;5013485;28;20068;-80
2022/01/10 12:47:19;;;;;;;17.23;8.80;;;15.30;88.20;;;;;;5032947;28;20045;-80
2022/01/10 12:49:47;;;;;;;18.30;8.90;;;15.30;88.40;;;;;;5035537;28;20538;-79